sensor_id;sensor_type;location;lat;lon;timestamp;pressure;altitude;pressure_sealevel;temperature;humidity
56400;BME280;42298;53.638;9.876;2023-03-19T00:02:12;100986.47;;;13.84;64.85
56400;BME280;42298;53.638;9.876;2023-03-19T00:04:37;100981.06;;;13.79;64.77
56400;BME280;42298;53.638;9.876;2023-03-19T00:07:03;100933.69;;;13.46;64.96
56400;BME280;42298;53.638;9.876;2023-03-19T00:09:29;100963.16;;;13.59;64.42
56400;BME280;42298;53.638;9.876;2023-03-19T00:11:54;100966.25;;;13.58;64.87
56400;BME280;42298;53.638;9.876;2023-03-19T00:14:20;100980.75;;;13.72;65.08
56400;BME280;42298;53.638;9.876;2023-03-19T00:16:46;100944.25;;;13.44;64.85
56400;BME280;42298;53.638;9.876;2023-03-19T00:19:12;100971.13;;;13.43;65.04
56400;BME280;42298;53.638;9.876;2023-03-19T00:21:38;100938.72;;;13.27;65.33
56400;BME280;42298;53.638;9.876;2023-03-19T00:24:03;100957.63;;;13.33;65.30
56400;BME280;42298;53.638;9.876;2023-03-19T00:26:30;100962.16;;;13.38;65.43
56400;BME280;42298;53.638;9.876;2023-03-19T00:28:56;100992.75;;;13.50;65.47
56400;BME280;42298;53.638;9.876;2023-03-19T00:31:22;100947.00;;;13.18;65.31
56400;BME280;42298;53.638;9.876;2023-03-19T00:33:48;100996.16;;;13.38;65.98
56400;BME280;42298;53.638;9.876;2023-03-19T00:36:14;100982.31;;;13.30;64.89
56400;BME280;42298;53.638;9.876;2023-03-19T00:38:41;100953.78;;;13.04;65.54
56400;BME280;42298;53.638;9.876;2023-03-19T00:41:06;100947.69;;;12.85;65.92
56400;BME280;42298;53.638;9.876;2023-03-19T00:43:31;100958.91;;;12.88;65.85
56400;BME280;42298;53.638;9.876;2023-03-19T00:45:57;100993.50;;;13.08;65.96
56400;BME280;42298;53.638;9.876;2023-03-19T00:48:23;100969.97;;;12.88;66.46
56400;BME280;42298;53.638;9.876;2023-03-19T00:50:48;100958.38;;;12.78;65.40
56400;BME280;42298;53.638;9.876;2023-03-19T00:53:14;101001.56;;;12.96;66.70
56400;BME280;42298;53.638;9.876;2023-03-19T00:55:40;100959.78;;;12.67;66.65
56400;BME280;42298;53.638;9.876;2023-03-19T00:58:05;100958.50;;;12.64;65.87
56400;BME280;42298;53.638;9.876;2023-03-19T01:00:35;100962.75;;;12.70;65.33
56400;BME280;42298;53.638;9.876;2023-03-19T01:03:02;101002.13;;;12.84;65.26
56400;BME280;42298;53.638;9.876;2023-03-19T01:05:28;100995.72;;;12.67;66.06
56400;BME280;42298;53.638;9.876;2023-03-19T01:07:54;101003.69;;;12.68;66.15
56400;BME280;42298;53.638;9.876;2023-03-19T01:10:21;100981.56;;;12.68;65.81
56400;BME280;42298;53.638;9.876;2023-03-19T01:12:47;101008.50;;;12.93;65.26
56400;BME280;42298;53.638;9.876;2023-03-19T01:15:13;100983.34;;;12.64;65.51
56400;BME280;42298;53.638;9.876;2023-03-19T01:17:38;101006.97;;;12.70;65.63
56400;BME280;42298;53.638;9.876;2023-03-19T01:20:05;101003.06;;;12.71;66.35
56400;BME280;42298;53.638;9.876;2023-03-19T01:22:38;101003.69;;;12.68;66.89
56400;BME280;42298;53.638;9.876;2023-03-19T01:25:04;100966.47;;;12.44;66.99
56400;BME280;42298;53.638;9.876;2023-03-19T01:27:30;100944.97;;;12.32;65.64
56400;BME280;42298;53.638;9.876;2023-03-19T01:29:55;100964.66;;;12.39;65.65
56400;BME280;42298;53.638;9.876;2023-03-19T01:32:20;100982.13;;;12.48;66.15
56400;BME280;42298;53.638;9.876;2023-03-19T01:34:47;100978.00;;;12.37;65.72
56400;BME280;42298;53.638;9.876;2023-03-19T01:37:12;100957.28;;;12.26;66.15
56400;BME280;42298;53.638;9.876;2023-03-19T01:39:39;100954.06;;;12.24;65.84
56400;BME280;42298;53.638;9.876;2023-03-19T01:42:05;100952.72;;;12.22;65.96
56400;BME280;42298;53.638;9.876;2023-03-19T01:44:37;100954.22;;;12.28;65.40
56400;BME280;42298;53.638;9.876;2023-03-19T01:47:13;100950.59;;;12.19;65.52
56400;BME280;42298;53.638;9.876;2023-03-19T01:49:41;100985.28;;;12.33;66.34
56400;BME280;42298;53.638;9.876;2023-03-19T01:52:07;100951.06;;;12.12;66.44
56400;BME280;42298;53.638;9.876;2023-03-19T01:54:34;100956.41;;;12.17;66.36
56400;BME280;42298;53.638;9.876;2023-03-19T01:57:06;100967.91;;;12.33;66.23
56400;BME280;42298;53.638;9.876;2023-03-19T01:59:45;100957.66;;;12.33;66.60
56400;BME280;42298;53.638;9.876;2023-03-19T02:02:22;100995.78;;;12.53;66.32
56400;BME280;42298;53.638;9.876;2023-03-19T02:04:52;100944.13;;;12.23;66.72
56400;BME280;42298;53.638;9.876;2023-03-19T02:07:20;100993.97;;;12.49;66.24
56400;BME280;42298;53.638;9.876;2023-03-19T02:09:46;100962.81;;;12.26;66.49
56400;BME280;42298;53.638;9.876;2023-03-19T02:12:13;100964.47;;;12.27;66.23
56400;BME280;42298;53.638;9.876;2023-03-19T02:14:39;100952.22;;;12.20;66.41
56400;BME280;42298;53.638;9.876;2023-03-19T02:17:05;100959.38;;;12.21;66.19
56400;BME280;42298;53.638;9.876;2023-03-19T02:19:49;100987.78;;;12.43;66.24
56400;BME280;42298;53.638;9.876;2023-03-19T02:22:21;100958.56;;;12.20;66.66
56400;BME280;42298;53.638;9.876;2023-03-19T02:24:52;100990.56;;;12.43;66.55
56400;BME280;42298;53.638;9.876;2023-03-19T02:27:20;100938.19;;;12.08;65.46
56400;BME280;42298;53.638;9.876;2023-03-19T02:29:46;100948.53;;;12.02;65.51
56400;BME280;42298;53.638;9.876;2023-03-19T02:32:11;100933.16;;;11.88;65.52
56400;BME280;42298;53.638;9.876;2023-03-19T02:34:41;100981.91;;;12.14;66.41
56400;BME280;42298;53.638;9.876;2023-03-19T02:37:17;100954.81;;;11.94;66.81
56400;BME280;42298;53.638;9.876;2023-03-19T02:39:48;100982.38;;;12.08;66.90
56400;BME280;42298;53.638;9.876;2023-03-19T02:42:14;100944.78;;;11.76;66.61
56400;BME280;42298;53.638;9.876;2023-03-19T02:44:42;100960.69;;;11.79;66.59
56400;BME280;42298;53.638;9.876;2023-03-19T02:47:10;100948.56;;;11.67;66.73
56400;BME280;42298;53.638;9.876;2023-03-19T02:49:35;100964.72;;;11.73;66.80
56400;BME280;42298;53.638;9.876;2023-03-19T02:52:01;100947.75;;;11.66;66.88
56400;BME280;42298;53.638;9.876;2023-03-19T02:54:26;100949.19;;;11.64;66.77
56400;BME280;42298;53.638;9.876;2023-03-19T02:56:51;100945.41;;;11.59;66.42
56400;BME280;42298;53.638;9.876;2023-03-19T02:59:18;100985.22;;;11.81;66.31
56400;BME280;42298;53.638;9.876;2023-03-19T03:01:43;100943.69;;;11.50;66.51
56400;BME280;42298;53.638;9.876;2023-03-19T03:04:08;100992.78;;;11.75;66.92
56400;BME280;42298;53.638;9.876;2023-03-19T03:06:34;100978.09;;;11.66;67.23
56400;BME280;42298;53.638;9.876;2023-03-19T03:09:00;100955.88;;;11.49;66.12
56400;BME280;42298;53.638;9.876;2023-03-19T03:11:25;100979.31;;;11.60;66.52
56400;BME280;42298;53.638;9.876;2023-03-19T03:13:51;100950.69;;;11.34;66.29
56400;BME280;42298;53.638;9.876;2023-03-19T03:16:16;100958.06;;;11.25;66.20
56400;BME280;42298;53.638;9.876;2023-03-19T03:18:42;100936.84;;;11.12;66.99
56400;BME280;42298;53.638;9.876;2023-03-19T03:21:07;100949.50;;;11.13;67.11
56400;BME280;42298;53.638;9.876;2023-03-19T03:23:34;100992.53;;;11.36;66.86
56400;BME280;42298;53.638;9.876;2023-03-19T03:26:01;100984.31;;;11.22;67.11
56400;BME280;42298;53.638;9.876;2023-03-19T03:28:26;100990.53;;;11.28;67.03
56400;BME280;42298;53.638;9.876;2023-03-19T03:30:58;100948.91;;;11.02;68.10
56400;BME280;42298;53.638;9.876;2023-03-19T03:33:24;100966.66;;;11.10;68.09
56400;BME280;42298;53.638;9.876;2023-03-19T03:35:51;100965.53;;;11.11;67.74
56400;BME280;42298;53.638;9.876;2023-03-19T03:38:16;100944.22;;;11.03;67.15
56400;BME280;42298;53.638;9.876;2023-03-19T03:40:42;100956.75;;;11.09;67.51
56400;BME280;42298;53.638;9.876;2023-03-19T03:43:07;100943.28;;;11.07;67.45
56400;BME280;42298;53.638;9.876;2023-03-19T03:45:34;100987.44;;;11.43;67.39
56400;BME280;42298;53.638;9.876;2023-03-19T03:47:59;100954.59;;;11.19;66.93
56400;BME280;42298;53.638;9.876;2023-03-19T03:50:26;100961.50;;;11.30;67.82
56400;BME280;42298;53.638;9.876;2023-03-19T03:52:51;100964.47;;;11.34;67.85
56400;BME280;42298;53.638;9.876;2023-03-19T03:55:16;100950.09;;;11.23;67.57
56400;BME280;42298;53.638;9.876;2023-03-19T03:57:42;100978.53;;;11.46;67.50
56400;BME280;42298;53.638;9.876;2023-03-19T04:00:08;100967.69;;;11.49;67.72
56400;BME280;42298;53.638;9.876;2023-03-19T04:02:34;100957.69;;;11.53;67.01
56400;BME280;42298;53.638;9.876;2023-03-19T04:05:01;100949.00;;;11.46;67.00
56400;BME280;42298;53.638;9.876;2023-03-19T04:07:26;100955.09;;;11.57;67.49
56400;BME280;42298;53.638;9.876;2023-03-19T04:09:52;100998.41;;;11.84;67.44
56400;BME280;42298;53.638;9.876;2023-03-19T04:12:17;100966.44;;;11.69;66.68
56400;BME280;42298;53.638;9.876;2023-03-19T04:14:42;100996.13;;;11.86;66.37
56400;BME280;42298;53.638;9.876;2023-03-19T04:17:08;100997.78;;;11.87;66.43
56400;BME280;42298;53.638;9.876;2023-03-19T04:19:34;100974.91;;;11.73;67.50
56400;BME280;42298;53.638;9.876;2023-03-19T04:21:59;100990.59;;;11.86;67.84
56400;BME280;42298;53.638;9.876;2023-03-19T04:24:27;100950.50;;;11.66;67.65
56400;BME280;42298;53.638;9.876;2023-03-19T04:26:53;100961.59;;;11.88;66.76
56400;BME280;42298;53.638;9.876;2023-03-19T04:29:18;100954.91;;;11.67;67.37
56400;BME280;42298;53.638;9.876;2023-03-19T04:31:45;100968.25;;;11.74;67.36
56400;BME280;42298;53.638;9.876;2023-03-19T04:34:11;100954.09;;;11.67;67.77
56400;BME280;42298;53.638;9.876;2023-03-19T04:36:37;100980.41;;;11.86;66.64
56400;BME280;42298;53.638;9.876;2023-03-19T04:39:03;100948.06;;;11.65;67.63
56400;BME280;42298;53.638;9.876;2023-03-19T04:41:28;100958.88;;;11.75;68.55
56400;BME280;42298;53.638;9.876;2023-03-19T04:43:54;100982.53;;;11.89;68.90
56400;BME280;42298;53.638;9.876;2023-03-19T04:46:19;100959.19;;;11.73;68.82
56400;BME280;42298;53.638;9.876;2023-03-19T04:48:45;100957.75;;;11.76;69.05
56400;BME280;42298;53.638;9.876;2023-03-19T04:51:10;100954.28;;;11.70;68.02
56400;BME280;42298;53.638;9.876;2023-03-19T04:53:38;100938.16;;;11.64;69.05
56400;BME280;42298;53.638;9.876;2023-03-19T04:56:04;100973.88;;;11.82;68.45
56400;BME280;42298;53.638;9.876;2023-03-19T05:05:12;100986.53;;;12.05;68.83
56400;BME280;42298;53.638;9.876;2023-03-19T05:07:40;101001.44;;;12.18;68.59
56400;BME280;42298;53.638;9.876;2023-03-19T05:10:08;100996.41;;;12.20;68.93
56400;BME280;42298;53.638;9.876;2023-03-19T05:12:34;100995.78;;;12.23;68.59
56400;BME280;42298;53.638;9.876;2023-03-19T05:15:01;101001.16;;;12.28;69.06
56400;BME280;42298;53.638;9.876;2023-03-19T05:17:29;101002.00;;;12.28;68.54
56400;BME280;42298;53.638;9.876;2023-03-19T05:19:54;100998.91;;;12.30;68.11
56400;BME280;42298;53.638;9.876;2023-03-19T05:22:21;100998.59;;;12.31;69.13
56400;BME280;42298;53.638;9.876;2023-03-19T05:24:48;100985.09;;;12.30;68.78
56400;BME280;42298;53.638;9.876;2023-03-19T05:27:14;100982.84;;;12.32;68.74
56400;BME280;42298;53.638;9.876;2023-03-19T05:29:42;101001.72;;;12.38;69.57
56400;BME280;42298;53.638;9.876;2023-03-19T05:32:09;100963.44;;;12.23;70.07
56400;BME280;42298;53.638;9.876;2023-03-19T05:34:36;100970.47;;;12.29;68.77
56400;BME280;42298;53.638;9.876;2023-03-19T05:37:01;100990.22;;;12.45;69.00
56400;BME280;42298;53.638;9.876;2023-03-19T05:39:27;100964.78;;;12.26;69.12
56400;BME280;42298;53.638;9.876;2023-03-19T05:41:53;100960.38;;;12.25;69.53
56400;BME280;42298;53.638;9.876;2023-03-19T05:44:19;100972.97;;;12.39;68.98
56400;BME280;42298;53.638;9.876;2023-03-19T05:46:45;101006.50;;;12.46;68.77
56400;BME280;42298;53.638;9.876;2023-03-19T05:49:11;100978.50;;;12.17;69.31
56400;BME280;42298;53.638;9.876;2023-03-19T05:51:39;100986.16;;;12.20;69.34
56400;BME280;42298;53.638;9.876;2023-03-19T05:54:05;100998.41;;;12.28;69.41
56400;BME280;42298;53.638;9.876;2023-03-19T05:56:34;100990.44;;;12.26;68.78
56400;BME280;42298;53.638;9.876;2023-03-19T05:59:02;100990.44;;;12.26;69.43
56400;BME280;42298;53.638;9.876;2023-03-19T06:01:31;100993.56;;;12.33;68.94
56400;BME280;42298;53.638;9.876;2023-03-19T06:03:57;100993.44;;;12.38;68.47
56400;BME280;42298;53.638;9.876;2023-03-19T06:06:22;101023.78;;;12.60;68.54
56400;BME280;42298;53.638;9.876;2023-03-19T06:08:48;100987.41;;;12.36;68.17
56400;BME280;42298;53.638;9.876;2023-03-19T06:11:14;100986.91;;;12.34;68.15
56400;BME280;42298;53.638;9.876;2023-03-19T06:13:39;100985.47;;;12.37;68.65
56400;BME280;42298;53.638;9.876;2023-03-19T06:16:05;100974.59;;;12.40;69.85
56400;BME280;42298;53.638;9.876;2023-03-19T06:18:34;100994.81;;;12.49;69.20
56400;BME280;42298;53.638;9.876;2023-03-19T06:20:59;101025.47;;;12.70;68.82
56400;BME280;42298;53.638;9.876;2023-03-19T06:23:29;101000.69;;;12.56;67.76
56400;BME280;42298;53.638;9.876;2023-03-19T06:25:55;101016.56;;;12.73;67.42
56400;BME280;42298;53.638;9.876;2023-03-19T06:28:20;101010.84;;;12.69;67.71
56400;BME280;42298;53.638;9.876;2023-03-19T06:30:47;101028.97;;;12.84;67.81
56400;BME280;42298;53.638;9.876;2023-03-19T06:33:12;101025.69;;;12.82;67.91
56400;BME280;42298;53.638;9.876;2023-03-19T06:35:39;101038.91;;;12.93;67.94
56400;BME280;42298;53.638;9.876;2023-03-19T06:38:13;101049.75;;;13.03;67.32
56400;BME280;42298;53.638;9.876;2023-03-19T06:40:39;101041.28;;;13.08;68.30
56400;BME280;42298;53.638;9.876;2023-03-19T06:43:04;101040.66;;;13.11;68.48
56400;BME280;42298;53.638;9.876;2023-03-19T06:45:30;101020.44;;;13.02;69.02
56400;BME280;42298;53.638;9.876;2023-03-19T06:47:59;101035.31;;;13.15;69.78
56400;BME280;42298;53.638;9.876;2023-03-19T06:50:25;101021.31;;;13.11;69.45
56400;BME280;42298;53.638;9.876;2023-03-19T06:52:51;101046.09;;;13.25;69.58
56400;BME280;42298;53.638;9.876;2023-03-19T06:55:17;101033.72;;;13.22;69.79
56400;BME280;42298;53.638;9.876;2023-03-19T06:57:47;101015.72;;;13.33;68.04
56400;BME280;42298;53.638;9.876;2023-03-19T07:00:14;101033.94;;;13.52;67.45
56400;BME280;42298;53.638;9.876;2023-03-19T07:02:40;101049.31;;;13.75;67.78
56400;BME280;42298;53.638;9.876;2023-03-19T07:05:06;101020.28;;;13.55;68.61
56400;BME280;42298;53.638;9.876;2023-03-19T07:07:33;101030.72;;;13.67;68.85
56400;BME280;42298;53.638;9.876;2023-03-19T07:09:59;101040.03;;;13.79;68.33
56400;BME280;42298;53.638;9.876;2023-03-19T07:12:26;101054.56;;;14.02;68.14
56400;BME280;42298;53.638;9.876;2023-03-19T07:14:53;101035.63;;;13.95;67.70
56400;BME280;42298;53.638;9.876;2023-03-19T07:17:21;101033.38;;;14.06;67.12
56400;BME280;42298;53.638;9.876;2023-03-19T07:19:47;101070.88;;;14.29;67.85
56400;BME280;42298;53.638;9.876;2023-03-19T07:22:14;101061.28;;;14.26;66.94
56400;BME280;42298;53.638;9.876;2023-03-19T07:24:39;101065.16;;;14.17;67.06
56400;BME280;42298;53.638;9.876;2023-03-19T07:27:06;101051.66;;;14.32;66.98
56400;BME280;42298;53.638;9.876;2023-03-19T07:29:31;101045.44;;;14.27;67.42
56400;BME280;42298;53.638;9.876;2023-03-19T07:31:57;101044.44;;;14.40;67.70
56400;BME280;42298;53.638;9.876;2023-03-19T07:34:24;101074.59;;;14.58;67.03
56400;BME280;42298;53.638;9.876;2023-03-19T07:36:50;101076.09;;;14.56;67.62
56400;BME280;42298;53.638;9.876;2023-03-19T07:39:17;101087.94;;;14.73;67.30
56400;BME280;42298;53.638;9.876;2023-03-19T07:41:42;101080.25;;;14.79;67.33
56400;BME280;42298;53.638;9.876;2023-03-19T07:44:09;101078.13;;;14.93;66.99
56400;BME280;42298;53.638;9.876;2023-03-19T07:46:35;101071.53;;;15.06;66.98
56400;BME280;42298;53.638;9.876;2023-03-19T07:49:01;101074.97;;;15.11;66.93
56400;BME280;42298;53.638;9.876;2023-03-19T07:51:26;101058.44;;;15.15;66.17
56400;BME280;42298;53.638;9.876;2023-03-19T07:53:54;101073.88;;;15.33;64.95
56400;BME280;42298;53.638;9.876;2023-03-19T08:01:29;101070.75;;;15.43;66.06
56400;BME280;42298;53.638;9.876;2023-03-19T08:03:55;101067.56;;;15.62;65.63
56400;BME280;42298;53.638;9.876;2023-03-19T08:06:20;101081.47;;;15.82;64.55
56400;BME280;42298;53.638;9.876;2023-03-19T08:08:48;101085.56;;;15.85;64.05
56400;BME280;42298;53.638;9.876;2023-03-19T08:11:13;101092.91;;;15.89;63.21
56400;BME280;42298;53.638;9.876;2023-03-19T08:13:39;101095.34;;;15.91;63.41
56400;BME280;42298;53.638;9.876;2023-03-19T08:16:05;101085.50;;;15.93;63.15
56400;BME280;42298;53.638;9.876;2023-03-19T08:18:32;101095.13;;;15.96;63.26
56400;BME280;42298;53.638;9.876;2023-03-19T08:20:58;101090.72;;;15.95;63.22
56400;BME280;42298;53.638;9.876;2023-03-19T08:23:23;101105.56;;;15.99;63.32
56400;BME280;42298;53.638;9.876;2023-03-19T08:25:48;101091.81;;;16.02;62.51
56400;BME280;42298;53.638;9.876;2023-03-19T08:28:18;101094.53;;;16.11;62.13
56400;BME280;42298;53.638;9.876;2023-03-19T08:30:43;101096.97;;;16.12;62.28
56400;BME280;42298;53.638;9.876;2023-03-19T08:33:08;101089.66;;;16.28;61.74
56400;BME280;42298;53.638;9.876;2023-03-19T08:35:34;101100.03;;;16.40;61.20
56400;BME280;42298;53.638;9.876;2023-03-19T08:38:00;101096.31;;;16.56;61.21
56400;BME280;42298;53.638;9.876;2023-03-19T08:40:25;101086.50;;;16.71;60.84
56400;BME280;42298;53.638;9.876;2023-03-19T08:42:51;101099.91;;;16.89;60.26
56400;BME280;42298;53.638;9.876;2023-03-19T08:45:17;101104.38;;;17.14;59.99
56400;BME280;42298;53.638;9.876;2023-03-19T08:47:43;101101.97;;;17.25;58.86
56400;BME280;42298;53.638;9.876;2023-03-19T08:50:10;101095.22;;;17.26;58.45
56400;BME280;42298;53.638;9.876;2023-03-19T08:52:36;101088.09;;;17.61;58.07
56400;BME280;42298;53.638;9.876;2023-03-19T08:55:03;101078.91;;;17.97;55.90
56400;BME280;42298;53.638;9.876;2023-03-19T08:57:30;101102.69;;;18.58;55.19
56400;BME280;42298;53.638;9.876;2023-03-19T08:59:56;101112.50;;;18.95;53.98
56400;BME280;42298;53.638;9.876;2023-03-19T09:02:22;101106.50;;;19.36;52.75
56400;BME280;42298;53.638;9.876;2023-03-19T09:04:47;101105.13;;;19.61;52.67
56400;BME280;42298;53.638;9.876;2023-03-19T09:07:12;101111.75;;;19.88;50.67
56400;BME280;42298;53.638;9.876;2023-03-19T09:09:40;101108.94;;;20.03;51.08
56400;BME280;42298;53.638;9.876;2023-03-19T09:12:07;101121.13;;;19.95;50.73
56400;BME280;42298;53.638;9.876;2023-03-19T09:14:33;101117.78;;;20.05;51.44
56400;BME280;42298;53.638;9.876;2023-03-19T09:16:58;101132.13;;;20.04;49.88
56400;BME280;42298;53.638;9.876;2023-03-19T09:19:24;101122.84;;;20.00;50.68
56400;BME280;42298;53.638;9.876;2023-03-19T09:21:50;101098.94;;;20.02;50.22
56400;BME280;42298;53.638;9.876;2023-03-19T09:24:19;101101.81;;;20.06;50.08
56400;BME280;42298;53.638;9.876;2023-03-19T09:26:45;101109.94;;;19.95;49.25
56400;BME280;42298;53.638;9.876;2023-03-19T09:29:12;101104.13;;;19.69;49.45
56400;BME280;42298;53.638;9.876;2023-03-19T09:31:38;101119.63;;;19.67;50.46
56400;BME280;42298;53.638;9.876;2023-03-19T09:34:04;101135.25;;;19.68;50.85
56400;BME280;42298;53.638;9.876;2023-03-19T09:36:30;101119.72;;;19.55;50.70
56400;BME280;42298;53.638;9.876;2023-03-19T09:38:56;101133.69;;;19.55;51.18
56400;BME280;42298;53.638;9.876;2023-03-19T09:44:01;101147.91;;;19.34;51.69
56400;BME280;42298;53.638;9.876;2023-03-19T09:46:33;101144.94;;;19.27;52.47
56400;BME280;42298;53.638;9.876;2023-03-19T09:49:23;101149.97;;;19.22;52.44
56400;BME280;42298;53.638;9.876;2023-03-19T09:52:01;101145.81;;;19.16;52.48
56400;BME280;42298;53.638;9.876;2023-03-19T09:54:33;101155.44;;;19.18;53.06
56400;BME280;42298;53.638;9.876;2023-03-19T09:57:01;101144.34;;;19.06;52.34
56400;BME280;42298;53.638;9.876;2023-03-19T09:59:27;101135.31;;;18.97;52.39
56400;BME280;42298;53.638;9.876;2023-03-19T10:02:11;101146.78;;;19.08;51.73
56400;BME280;42298;53.638;9.876;2023-03-19T10:05:02;101133.78;;;18.99;51.94
56400;BME280;42298;53.638;9.876;2023-03-19T10:10:45;101129.72;;;18.97;51.33
56400;BME280;42298;53.638;9.876;2023-03-19T10:16:17;101148.59;;;19.16;52.38
56400;BME280;42298;53.638;9.876;2023-03-19T10:18:48;101168.59;;;19.18;52.37
56400;BME280;42298;53.638;9.876;2023-03-19T10:21:32;101161.50;;;19.20;52.36
56400;BME280;42298;53.638;9.876;2023-03-19T10:24:22;101154.88;;;19.40;51.83
56400;BME280;42298;53.638;9.876;2023-03-19T10:26:57;101148.03;;;19.69;51.34
56400;BME280;42298;53.638;9.876;2023-03-19T10:29:24;101150.00;;;19.99;50.91
56400;BME280;42298;53.638;9.876;2023-03-19T10:31:54;101159.69;;;20.36;50.19
56400;BME280;42298;53.638;9.876;2023-03-19T10:37:00;101136.59;;;21.16;47.90
56400;BME280;42298;53.638;9.876;2023-03-19T10:39:38;101159.59;;;21.70;47.56
56400;BME280;42298;53.638;9.876;2023-03-19T10:45:42;101140.56;;;22.05;45.85
56400;BME280;42298;53.638;9.876;2023-03-19T10:48:14;101147.56;;;21.69;45.89
56400;BME280;42298;53.638;9.876;2023-03-19T10:50:50;101140.84;;;21.51;45.86
56400;BME280;42298;53.638;9.876;2023-03-19T10:56:03;101164.19;;;21.36;46.66
56400;BME280;42298;53.638;9.876;2023-03-19T10:58:32;101135.56;;;21.05;47.40
56400;BME280;42298;53.638;9.876;2023-03-19T11:01:08;101158.50;;;21.10;47.24
56400;BME280;42298;53.638;9.876;2023-03-19T11:03:48;101141.44;;;20.80;47.17
56400;BME280;42298;53.638;9.876;2023-03-19T11:06:30;101162.91;;;20.92;47.89
56400;BME280;42298;53.638;9.876;2023-03-19T11:09:00;101131.13;;;20.65;47.33
56400;BME280;42298;53.638;9.876;2023-03-19T11:11:33;101156.78;;;20.87;47.83
56400;BME280;42298;53.638;9.876;2023-03-19T11:16:53;101155.28;;;21.31;47.08
56400;BME280;42298;53.638;9.876;2023-03-19T11:19:26;101163.00;;;21.60;47.43
56400;BME280;42298;53.638;9.876;2023-03-19T11:21:58;101156.19;;;21.80;46.47
56400;BME280;42298;53.638;9.876;2023-03-19T11:24:25;101146.53;;;21.77;46.29
56400;BME280;42298;53.638;9.876;2023-03-19T11:26:54;101150.88;;;21.97;45.35
56400;BME280;42298;53.638;9.876;2023-03-19T11:29:20;101146.47;;;22.22;46.21
56400;BME280;42298;53.638;9.876;2023-03-19T11:32:21;101153.44;;;22.62;45.36
56400;BME280;42298;53.638;9.876;2023-03-19T11:35:10;101150.53;;;22.84;44.57
56400;BME280;42298;53.638;9.876;2023-03-19T11:37:48;101156.78;;;23.00;44.23
56400;BME280;42298;53.638;9.876;2023-03-19T11:40:41;101143.88;;;22.99;43.83
56400;BME280;42298;53.638;9.876;2023-03-19T11:46:35;101160.53;;;22.82;44.25
56400;BME280;42298;53.638;9.876;2023-03-19T11:49:15;101147.38;;;22.56;43.97
56400;BME280;42298;53.638;9.876;2023-03-19T11:51:50;101156.03;;;22.47;44.39
56400;BME280;42298;53.638;9.876;2023-03-19T11:54:22;101151.88;;;22.38;45.10
56400;BME280;42298;53.638;9.876;2023-03-19T11:56:57;101162.66;;;22.32;45.43
56400;BME280;42298;53.638;9.876;2023-03-19T12:10:28;101158.66;;;21.40;47.02
56400;BME280;42298;53.638;9.876;2023-03-19T12:13:09;101160.44;;;21.48;47.02
56400;BME280;42298;53.638;9.876;2023-03-19T12:16:08;101149.31;;;21.32;46.50
56400;BME280;42298;53.638;9.876;2023-03-19T12:18:42;101154.84;;;21.29;46.26
56400;BME280;42298;53.638;9.876;2023-03-19T12:21:36;101145.81;;;21.16;46.87
56400;BME280;42298;53.638;9.876;2023-03-19T12:30:00;101154.88;;;21.10;46.86
56400;BME280;42298;53.638;9.876;2023-03-19T12:35:29;101146.09;;;20.92;47.39
56400;BME280;42298;53.638;9.876;2023-03-19T12:37:59;101143.13;;;20.85;47.30
56400;BME280;42298;53.638;9.876;2023-03-19T12:43:01;101127.47;;;20.61;47.84
56400;BME280;42298;53.638;9.876;2023-03-19T12:45:33;101144.38;;;20.68;47.30
56400;BME280;42298;53.638;9.876;2023-03-19T12:48:14;101139.75;;;20.57;47.53
56400;BME280;42298;53.638;9.876;2023-03-19T12:50:42;101138.78;;;20.49;48.17
56400;BME280;42298;53.638;9.876;2023-03-19T12:53:47;101147.13;;;20.46;49.48
56400;BME280;42298;53.638;9.876;2023-03-19T12:56:34;101151.66;;;20.35;48.78
56400;BME280;42298;53.638;9.876;2023-03-19T12:59:27;101162.63;;;20.43;48.97
56400;BME280;42298;53.638;9.876;2023-03-19T13:04:50;101147.91;;;20.46;49.29
56400;BME280;42298;53.638;9.876;2023-03-19T13:07:58;101159.84;;;20.43;48.38
56400;BME280;42298;53.638;9.876;2023-03-19T13:10:24;101156.78;;;20.48;48.95
56400;BME280;42298;53.638;9.876;2023-03-19T13:12:52;101153.88;;;20.45;48.88
56400;BME280;42298;53.638;9.876;2023-03-19T13:15:31;101153.69;;;20.53;48.22
56400;BME280;42298;53.638;9.876;2023-03-19T13:18:30;101157.88;;;20.63;48.30
56400;BME280;42298;53.638;9.876;2023-03-19T13:21:12;101141.69;;;20.72;47.83
56400;BME280;42298;53.638;9.876;2023-03-19T13:23:42;101139.47;;;20.81;48.20
56400;BME280;42298;53.638;9.876;2023-03-19T13:26:10;101142.41;;;20.88;47.29
56400;BME280;42298;53.638;9.876;2023-03-19T13:28:52;101149.56;;;20.86;47.81
56400;BME280;42298;53.638;9.876;2023-03-19T13:31:22;101149.84;;;20.80;47.29
56400;BME280;42298;53.638;9.876;2023-03-19T13:36:52;101130.91;;;20.55;47.71
56400;BME280;42298;53.638;9.876;2023-03-19T13:39:23;101146.59;;;20.59;47.69
56400;BME280;42298;53.638;9.876;2023-03-19T13:45:01;101130.13;;;20.54;47.04
56400;BME280;42298;53.638;9.876;2023-03-19T13:58:20;101129.75;;;20.37;48.51
56400;BME280;42298;53.638;9.876;2023-03-19T14:01:10;101117.88;;;20.43;48.57
56400;BME280;42298;53.638;9.876;2023-03-19T14:09:44;101126.50;;;21.11;47.33
56400;BME280;42298;53.638;9.876;2023-03-19T14:15:13;101131.72;;;21.13;47.05
56400;BME280;42298;53.638;9.876;2023-03-19T14:22:53;101141.91;;;20.63;48.16
56400;BME280;42298;53.638;9.876;2023-03-19T14:25:23;101132.97;;;20.58;47.95
56400;BME280;42298;53.638;9.876;2023-03-19T14:27:54;101138.44;;;20.70;48.31
56400;BME280;42298;53.638;9.876;2023-03-19T14:30:30;101108.38;;;20.67;47.34
56400;BME280;42298;53.638;9.876;2023-03-19T14:33:00;101120.75;;;20.66;47.75